sensor_id;sensor_type;location;lat;lon;timestamp;pressure;altitude;pressure_sealevel;temperature;humidity
25430;BME280;13360;48.152;-1.788;2023-05-29T00:02:12;101603.69;;;19.15;100.00
25430;BME280;13360;48.152;-1.788;2023-05-29T00:04:38;101593.31;;;19.15;100.00
25430;BME280;13360;48.152;-1.788;2023-05-29T00:07:04;101602.03;;;19.14;100.00
25430;BME280;13360;48.152;-1.788;2023-05-29T00:09:29;101594.31;;;19.11;100.00
25430;BME280;13360;48.152;-1.788;2023-05-29T00:11:55;101594.16;;;19.07;100.00
25430;BME280;13360;48.152;-1.788;2023-05-29T00:14:20;101602.91;;;19.06;100.00
25430;BME280;13360;48.152;-1.788;2023-05-29T00:16:47;101604.41;;;19.03;100.00
25430;BME280;13360;48.152;-1.788;2023-05-29T00:19:13;101613.13;;;19.02;100.00
25430;BME280;13360;48.152;-1.788;2023-05-29T00:21:39;101603.09;;;19.01;100.00
25430;BME280;13360;48.152;-1.788;2023-05-29T00:24:04;101609.03;;;18.99;100.00
25430;BME280;13360;48.152;-1.788;2023-05-29T00:26:30;101614.13;;;18.97;100.00
25430;BME280;13360;48.152;-1.788;2023-05-29T00:28:55;101606.22;;;18.91;100.00
25430;BME280;13360;48.152;-1.788;2023-05-29T00:31:20;101608.19;;;18.90;100.00
25430;BME280;13360;48.152;-1.788;2023-05-29T00:33:46;101604.09;;;18.87;100.00
25430;BME280;13360;48.152;-1.788;2023-05-29T00:36:11;101617.59;;;18.85;100.00
25430;BME280;13360;48.152;-1.788;2023-05-29T00:38:36;101608.72;;;18.83;100.00
25430;BME280;13360;48.152;-1.788;2023-05-29T00:41:01;101611.19;;;18.76;100.00
25430;BME280;13360;48.152;-1.788;2023-05-29T00:43:27;101616.47;;;18.78;100.00
25430;BME280;13360;48.152;-1.788;2023-05-29T00:45:53;101611.53;;;18.75;100.00
25430;BME280;13360;48.152;-1.788;2023-05-29T00:48:18;101613.50;;;18.74;100.00
25430;BME280;13360;48.152;-1.788;2023-05-29T00:50:43;101614.63;;;18.73;100.00
25430;BME280;13360;48.152;-1.788;2023-05-29T00:53:09;101611.34;;;18.71;100.00
25430;BME280;13360;48.152;-1.788;2023-05-29T00:55:34;101609.22;;;18.68;100.00
25430;BME280;13360;48.152;-1.788;2023-05-29T00:58:00;101612.84;;;18.69;100.00
25430;BME280;13360;48.152;-1.788;2023-05-29T01:00:25;101615.97;;;18.67;100.00
25430;BME280;13360;48.152;-1.788;2023-05-29T01:02:50;101610.22;;;18.64;100.00
25430;BME280;13360;48.152;-1.788;2023-05-29T01:05:17;101610.03;;;18.60;100.00
25430;BME280;13360;48.152;-1.788;2023-05-29T01:07:44;101617.44;;;18.56;100.00
25430;BME280;13360;48.152;-1.788;2023-05-29T01:10:09;101605.09;;;18.57;100.00
25430;BME280;13360;48.152;-1.788;2023-05-29T01:12:47;101605.09;;;18.57;100.00
25430;BME280;13360;48.152;-1.788;2023-05-29T01:15:36;101607.72;;;18.53;100.00
25430;BME280;13360;48.152;-1.788;2023-05-29T01:28:19;101613.97;;;18.42;100.00
25430;BME280;13360;48.152;-1.788;2023-05-29T01:30:46;101610.69;;;18.40;100.00
25430;BME280;13360;48.152;-1.788;2023-05-29T01:33:12;101605.41;;;18.38;100.00
25430;BME280;13360;48.152;-1.788;2023-05-29T01:35:37;101604.59;;;18.38;100.00
25430;BME280;13360;48.152;-1.788;2023-05-29T01:38:02;101607.41;;;18.38;100.00
25430;BME280;13360;48.152;-1.788;2023-05-29T01:40:28;101610.84;;;18.35;100.00
25430;BME280;13360;48.152;-1.788;2023-05-29T01:42:53;101611.00;;;18.29;100.00
25430;BME280;13360;48.152;-1.788;2023-05-29T01:45:18;101614.13;;;18.28;100.00
25430;BME280;13360;48.152;-1.788;2023-05-29T01:47:44;101611.97;;;18.25;100.00
25430;BME280;13360;48.152;-1.788;2023-05-29T01:50:10;101614.63;;;18.21;100.00
25430;BME280;13360;48.152;-1.788;2023-05-29T01:52:38;101617.91;;;18.23;100.00
25430;BME280;13360;48.152;-1.788;2023-05-29T01:55:03;101612.97;;;18.20;100.00
25430;BME280;13360;48.152;-1.788;2023-05-29T01:57:29;101600.63;;;18.13;100.00
25430;BME280;13360;48.152;-1.788;2023-05-29T01:59:54;101614.41;;;18.09;100.00
25430;BME280;13360;48.152;-1.788;2023-05-29T02:02:21;101615.75;;;18.12;100.00
25430;BME280;13360;48.152;-1.788;2023-05-29T02:04:46;101623.00;;;18.13;100.00
25430;BME280;13360;48.152;-1.788;2023-05-29T02:07:11;101622.19;;;18.12;100.00
25430;BME280;13360;48.152;-1.788;2023-05-29T02:09:37;101613.28;;;18.10;100.00
25430;BME280;13360;48.152;-1.788;2023-05-29T02:12:02;101626.09;;;18.03;100.00
25430;BME280;13360;48.152;-1.788;2023-05-29T02:14:28;101621.00;;;17.96;100.00
25430;BME280;13360;48.152;-1.788;2023-05-29T02:16:54;101613.91;;;17.98;100.00
25430;BME280;13360;48.152;-1.788;2023-05-29T02:19:19;101612.44;;;17.92;100.00
25430;BME280;13360;48.152;-1.788;2023-05-29T02:21:44;101619.34;;;17.95;100.00
25430;BME280;13360;48.152;-1.788;2023-05-29T02:24:09;101634.63;;;17.97;100.00
25430;BME280;13360;48.152;-1.788;2023-05-29T02:26:35;101633.31;;;17.95;100.00
25430;BME280;13360;48.152;-1.788;2023-05-29T02:29:03;101628.38;;;17.92;100.00
25430;BME280;13360;48.152;-1.788;2023-05-29T02:31:31;101630.03;;;17.93;100.00
25430;BME280;13360;48.152;-1.788;2023-05-29T02:33:57;101634.47;;;17.94;100.00
25430;BME280;13360;48.152;-1.788;2023-05-29T02:36:22;101627.25;;;17.93;100.00
25430;BME280;13360;48.152;-1.788;2023-05-29T02:38:47;101626.41;;;17.92;100.00
25430;BME280;13360;48.152;-1.788;2023-05-29T02:41:12;101630.66;;;17.90;100.00
25430;BME280;13360;48.152;-1.788;2023-05-29T02:43:38;101629.00;;;17.89;100.00
25430;BME280;13360;48.152;-1.788;2023-05-29T02:46:03;101624.56;;;17.88;100.00
25430;BME280;13360;48.152;-1.788;2023-05-29T02:48:28;101620.13;;;17.87;100.00
25430;BME280;13360;48.152;-1.788;2023-05-29T02:50:54;101626.19;;;17.80;100.00
25430;BME280;13360;48.152;-1.788;2023-05-29T02:53:19;101630.16;;;17.79;100.00
25430;BME280;13360;48.152;-1.788;2023-05-29T02:55:44;101622.41;;;17.76;100.00
25430;BME280;13360;48.152;-1.788;2023-05-29T02:58:10;101626.03;;;17.77;100.00
25430;BME280;13360;48.152;-1.788;2023-05-29T03:00:36;101624.53;;;17.71;100.00
25430;BME280;13360;48.152;-1.788;2023-05-29T03:03:01;101637.97;;;17.68;100.00
25430;BME280;13360;48.152;-1.788;2023-05-29T03:05:28;101638.59;;;17.65;100.00
25430;BME280;13360;48.152;-1.788;2023-05-29T03:07:53;101633.34;;;17.64;100.00
25430;BME280;13360;48.152;-1.788;2023-05-29T03:10:18;101636.13;;;17.64;100.00
25430;BME280;13360;48.152;-1.788;2023-05-29T03:12:44;101629.72;;;17.63;100.00
25430;BME280;13360;48.152;-1.788;2023-05-29T03:15:09;101634.47;;;17.63;100.00
25430;BME280;13360;48.152;-1.788;2023-05-29T03:17:35;101634.81;;;17.61;100.00
25430;BME280;13360;48.152;-1.788;2023-05-29T03:20:03;101631.53;;;17.59;100.00
25430;BME280;13360;48.152;-1.788;2023-05-29T03:22:31;101632.66;;;17.58;100.00
25430;BME280;13360;48.152;-1.788;2023-05-29T03:24:56;101630.69;;;17.59;100.00
25430;BME280;13360;48.152;-1.788;2023-05-29T03:27:21;101629.19;;;17.53;100.00
25430;BME280;13360;48.152;-1.788;2023-05-29T03:29:46;101645.97;;;17.53;100.00
25430;BME280;13360;48.152;-1.788;2023-05-29T03:32:12;101652.31;;;17.45;100.00
25430;BME280;13360;48.152;-1.788;2023-05-29T03:34:37;101659.03;;;17.44;100.00
25430;BME280;13360;48.152;-1.788;2023-05-29T03:37:02;101658.38;;;17.38;100.00
25430;BME280;13360;48.152;-1.788;2023-05-29T03:39:28;101659.00;;;17.35;100.00
25430;BME280;13360;48.152;-1.788;2023-05-29T03:41:53;101658.31;;;17.29;100.00
25430;BME280;13360;48.152;-1.788;2023-05-29T03:44:18;101662.75;;;17.30;100.00
25430;BME280;13360;48.152;-1.788;2023-05-29T03:46:44;101667.06;;;17.36;100.00
25430;BME280;13360;48.152;-1.788;2023-05-29T03:49:09;101664.28;;;17.36;100.00
25430;BME280;13360;48.152;-1.788;2023-05-29T03:51:34;101673.47;;;17.37;100.00
25430;BME280;13360;48.152;-1.788;2023-05-29T03:54:01;101671.66;;;17.32;100.00
25430;BME280;13360;48.152;-1.788;2023-05-29T03:56:26;101672.47;;;17.33;100.00
25430;BME280;13360;48.152;-1.788;2023-05-29T03:58:51;101678.88;;;17.33;100.00
25430;BME280;13360;48.152;-1.788;2023-05-29T04:01:17;101682.00;;;17.32;100.00
25430;BME280;13360;48.152;-1.788;2023-05-29T04:03:42;101675.19;;;17.24;100.00
25430;BME280;13360;48.152;-1.788;2023-05-29T04:06:08;101691.13;;;17.24;100.00
25430;BME280;13360;48.152;-1.788;2023-05-29T04:08:34;101683.56;;;17.24;100.00
25430;BME280;13360;48.152;-1.788;2023-05-29T04:10:59;101684.66;;;17.15;100.00
25430;BME280;13360;48.152;-1.788;2023-05-29T04:13:24;101686.00;;;17.17;100.00
25430;BME280;13360;48.152;-1.788;2023-05-29T04:15:50;101685.16;;;17.17;100.00
25430;BME280;13360;48.152;-1.788;2023-05-29T04:18:18;101686.00;;;17.17;100.00
25430;BME280;13360;48.152;-1.788;2023-05-29T04:20:44;101687.63;;;17.18;100.00
25430;BME280;13360;48.152;-1.788;2023-05-29T04:23:12;101697.97;;;17.18;100.00
25430;BME280;13360;48.152;-1.788;2023-05-29T04:25:37;101705.22;;;17.19;100.00
25430;BME280;13360;48.152;-1.788;2023-05-29T04:28:02;101712.44;;;17.20;100.00
25430;BME280;13360;48.152;-1.788;2023-05-29T04:30:28;101710.28;;;17.17;100.00
25430;BME280;13360;48.152;-1.788;2023-05-29T04:32:54;101717.03;;;17.16;100.00
25430;BME280;13360;48.152;-1.788;2023-05-29T04:35:19;101708.16;;;17.14;100.00
25430;BME280;13360;48.152;-1.788;2023-05-29T04:37:46;101718.81;;;17.12;100.00
25430;BME280;13360;48.152;-1.788;2023-05-29T04:40:12;101712.06;;;17.13;100.00
25430;BME280;13360;48.152;-1.788;2023-05-29T04:42:39;101717.66;;;17.13;100.00
25430;BME280;13360;48.152;-1.788;2023-05-29T04:45:07;101713.53;;;17.10;100.00
25430;BME280;13360;48.152;-1.788;2023-05-29T04:47:35;101714.38;;;17.11;100.00
25430;BME280;13360;48.152;-1.788;2023-05-29T04:50:01;101729.47;;;17.10;100.00
25430;BME280;13360;48.152;-1.788;2023-05-29T04:52:26;101706.72;;;17.02;100.00
25430;BME280;13360;48.152;-1.788;2023-05-29T04:54:53;101705.41;;;17.00;100.00
25430;BME280;13360;48.152;-1.788;2023-05-29T04:57:18;101707.38;;;16.99;100.00
25430;BME280;13360;48.152;-1.788;2023-05-29T04:59:43;101706.72;;;17.02;100.00
25430;BME280;13360;48.152;-1.788;2023-05-29T05:02:09;101715.94;;;17.03;100.00
25430;BME280;13360;48.152;-1.788;2023-05-29T05:04:34;101720.19;;;17.00;100.00
25430;BME280;13360;48.152;-1.788;2023-05-29T05:06:59;101723.75;;;16.92;100.00
25430;BME280;13360;48.152;-1.788;2023-05-29T05:09:25;101729.69;;;16.99;100.00
25430;BME280;13360;48.152;-1.788;2023-05-29T05:11:51;101731.03;;;17.02;100.00
25430;BME280;13360;48.152;-1.788;2023-05-29T05:14:16;101730.72;;;17.03;100.00
25430;BME280;13360;48.152;-1.788;2023-05-29T05:16:41;101721.44;;;16.94;100.00
25430;BME280;13360;48.152;-1.788;2023-05-29T05:19:07;101730.78;;;16.90;100.00
25430;BME280;13360;48.152;-1.788;2023-05-29T05:21:32;101740.81;;;16.91;100.00
25430;BME280;13360;48.152;-1.788;2023-05-29T05:23:57;101754.25;;;16.89;100.00
25430;BME280;13360;48.152;-1.788;2023-05-29T05:26:23;101750.09;;;16.86;100.00
25430;BME280;13360;48.152;-1.788;2023-05-29T05:28:48;101747.31;;;16.86;100.00
25430;BME280;13360;48.152;-1.788;2023-05-29T05:31:13;101755.56;;;16.91;100.00
25430;BME280;13360;48.152;-1.788;2023-05-29T05:33:38;101766.09;;;16.94;100.00
25430;BME280;13360;48.152;-1.788;2023-05-29T05:36:04;101767.94;;;16.99;100.00
25430;BME280;13360;48.152;-1.788;2023-05-29T05:38:30;101774.16;;;16.96;100.00
25430;BME280;13360;48.152;-1.788;2023-05-29T05:40:55;101772.31;;;16.91;100.00
25430;BME280;13360;48.152;-1.788;2023-05-29T05:43:21;101770.88;;;16.94;100.00
25430;BME280;13360;48.152;-1.788;2023-05-29T05:45:46;101778.28;;;16.98;100.00
25430;BME280;13360;48.152;-1.788;2023-05-29T05:48:12;101768.06;;;16.94;100.00
25430;BME280;13360;48.152;-1.788;2023-05-29T05:50:37;101780.19;;;16.89;100.00
25430;BME280;13360;48.152;-1.788;2023-05-29T05:53:02;101789.69;;;16.88;100.00
25430;BME280;13360;48.152;-1.788;2023-05-29T05:55:27;101790.72;;;16.92;100.00
25430;BME280;13360;48.152;-1.788;2023-05-29T05:57:53;101805.44;;;16.70;100.00
25430;BME280;13360;48.152;-1.788;2023-05-29T06:00:18;101821.81;;;16.86;100.00
25430;BME280;13360;48.152;-1.788;2023-05-29T06:02:43;101819.03;;;16.86;100.00
25430;BME280;13360;48.152;-1.788;2023-05-29T06:05:10;101821.41;;;16.92;100.00
25430;BME280;13360;48.152;-1.788;2023-05-29T06:07:36;101823.44;;;17.00;100.00
25430;BME280;13360;48.152;-1.788;2023-05-29T06:10:02;101824.91;;;16.98;100.00
25430;BME280;13360;48.152;-1.788;2023-05-29T06:12:27;101829.53;;;17.02;100.00
25430;BME280;13360;48.152;-1.788;2023-05-29T06:14:52;101835.53;;;17.10;100.00
25430;BME280;13360;48.152;-1.788;2023-05-29T06:17:18;101839.06;;;17.01;100.00
25430;BME280;13360;48.152;-1.788;2023-05-29T06:19:43;101842.34;;;17.03;100.00
25430;BME280;13360;48.152;-1.788;2023-05-29T06:22:08;101848.97;;;17.08;100.00
25430;BME280;13360;48.152;-1.788;2023-05-29T06:24:34;101857.75;;;17.15;100.00
25430;BME280;13360;48.152;-1.788;2023-05-29T06:26:59;101866.50;;;17.22;100.00
25430;BME280;13360;48.152;-1.788;2023-05-29T06:29:24;101869.81;;;17.24;100.00
25430;BME280;13360;48.152;-1.788;2023-05-29T06:31:50;101855.97;;;17.19;100.00
25430;BME280;13360;48.152;-1.788;2023-05-29T06:34:15;101858.13;;;17.22;100.00
25430;BME280;13360;48.152;-1.788;2023-05-29T06:36:40;101833.25;;;17.12;100.00
25430;BME280;13360;48.152;-1.788;2023-05-29T06:39:06;101839.66;;;17.12;100.00
25430;BME280;13360;48.152;-1.788;2023-05-29T06:41:32;101849.06;;;17.16;100.00
25430;BME280;13360;48.152;-1.788;2023-05-29T06:43:57;101820.84;;;17.04;100.00
25430;BME280;13360;48.152;-1.788;2023-05-29T06:46:22;101829.94;;;17.10;100.00
25430;BME280;13360;48.152;-1.788;2023-05-29T06:48:47;101846.56;;;17.15;100.00
25430;BME280;13360;48.152;-1.788;2023-05-29T06:51:13;101835.13;;;17.02;100.00
25430;BME280;13360;48.152;-1.788;2023-05-29T06:53:38;101817.16;;;16.95;100.00
25430;BME280;13360;48.152;-1.788;2023-05-29T06:56:04;101828.50;;;16.98;100.00
25430;BME280;13360;48.152;-1.788;2023-05-29T06:58:30;101834.91;;;17.13;100.00
25430;BME280;13360;48.152;-1.788;2023-05-29T07:00:56;101868.16;;;17.23;100.00
25430;BME280;13360;48.152;-1.788;2023-05-29T07:03:21;101869.72;;;17.29;100.00
25430;BME280;13360;48.152;-1.788;2023-05-29T07:05:46;101858.81;;;17.27;100.00
25430;BME280;13360;48.152;-1.788;2023-05-29T07:08:11;101842.84;;;17.19;100.00
25430;BME280;13360;48.152;-1.788;2023-05-29T07:10:36;101856.25;;;17.31;100.00
25430;BME280;13360;48.152;-1.788;2023-05-29T07:13:02;101869.78;;;17.37;100.00
25430;BME280;13360;48.152;-1.788;2023-05-29T07:15:27;101869.56;;;17.34;100.00
25430;BME280;13360;48.152;-1.788;2023-05-29T07:17:52;101868.50;;;17.44;100.00
25430;BME280;13360;48.152;-1.788;2023-05-29T07:20:17;101894.38;;;17.49;100.00
25430;BME280;13360;48.152;-1.788;2023-05-29T07:22:45;101860.94;;;17.44;100.00
25430;BME280;13360;48.152;-1.788;2023-05-29T07:25:10;101865.38;;;17.45;100.00
25430;BME280;13360;48.152;-1.788;2023-05-29T07:27:35;101881.09;;;17.55;100.00
25430;BME280;13360;48.152;-1.788;2023-05-29T07:30:00;101861.84;;;17.53;100.00
25430;BME280;13360;48.152;-1.788;2023-05-29T07:32:26;101823.94;;;17.38;100.00
25430;BME280;13360;48.152;-1.788;2023-05-29T07:34:51;101827.63;;;17.48;100.00
25430;BME280;13360;48.152;-1.788;2023-05-29T07:37:16;101862.22;;;17.60;100.00
25430;BME280;13360;48.152;-1.788;2023-05-29T07:39:44;101877.72;;;17.66;100.00
25430;BME280;13360;48.152;-1.788;2023-05-29T07:42:09;101900.69;;;17.77;100.00
25430;BME280;13360;48.152;-1.788;2023-05-29T07:44:34;101900.06;;;17.80;100.00
25430;BME280;13360;48.152;-1.788;2023-05-29T07:47:00;101903.53;;;17.86;100.00
25430;BME280;13360;48.152;-1.788;2023-05-29T07:49:25;101903.72;;;17.89;100.00
25430;BME280;13360;48.152;-1.788;2023-05-29T07:51:50;101872.69;;;17.91;100.00
25430;BME280;13360;48.152;-1.788;2023-05-29T07:54:15;101874.19;;;17.97;100.00
25430;BME280;13360;48.152;-1.788;2023-05-29T07:56:43;101879.66;;;18.02;100.00
25430;BME280;13360;48.152;-1.788;2023-05-29T07:59:09;101863.19;;;18.01;100.00
25430;BME280;13360;48.152;-1.788;2023-05-29T08:01:34;101874.41;;;18.09;100.00
25430;BME280;13360;48.152;-1.788;2023-05-29T08:03:59;101888.91;;;18.11;100.00
25430;BME280;13360;48.152;-1.788;2023-05-29T08:06:24;101895.13;;;18.08;100.00
25430;BME280;13360;48.152;-1.788;2023-05-29T08:08:50;101861.59;;;18.08;100.00
25430;BME280;13360;48.152;-1.788;2023-05-29T08:11:17;101864.25;;;18.13;100.00
25430;BME280;13360;48.152;-1.788;2023-05-29T08:13:43;101854.09;;;18.17;100.00
25430;BME280;13360;48.152;-1.788;2023-05-29T08:16:08;101868.09;;;18.26;100.00
25430;BME280;13360;48.152;-1.788;2023-05-29T08:18:33;101824.31;;;18.21;100.00
25430;BME280;13360;48.152;-1.788;2023-05-29T08:20:59;101831.09;;;18.29;100.00
25430;BME280;13360;48.152;-1.788;2023-05-29T08:23:24;101845.97;;;18.38;100.00
25430;BME280;13360;48.152;-1.788;2023-05-29T08:25:50;101875.31;;;18.58;100.00
25430;BME280;13360;48.152;-1.788;2023-05-29T08:28:15;101883.13;;;18.70;100.00
25430;BME280;13360;48.152;-1.788;2023-05-29T08:30:41;101814.69;;;18.84;100.00
25430;BME280;13360;48.152;-1.788;2023-05-29T08:33:07;101788.50;;;19.06;100.00
25430;BME280;13360;48.152;-1.788;2023-05-29T08:35:32;101787.06;;;19.17;100.00
25430;BME280;13360;48.152;-1.788;2023-05-29T08:37:58;101757.38;;;19.25;100.00
25430;BME280;13360;48.152;-1.788;2023-05-29T08:40:23;101738.63;;;19.17;100.00
25430;BME280;13360;48.152;-1.788;2023-05-29T08:42:59;101747.66;;;19.14;100.00
25430;BME280;13360;48.152;-1.788;2023-05-29T08:45:26;101746.19;;;19.16;100.00
25430;BME280;13360;48.152;-1.788;2023-05-29T08:47:53;101752.44;;;19.22;100.00
25430;BME280;13360;48.152;-1.788;2023-05-29T08:50:20;101762.13;;;19.33;100.00
25430;BME280;13360;48.152;-1.788;2023-05-29T08:52:46;101784.38;;;19.47;100.00
25430;BME280;13360;48.152;-1.788;2023-05-29T08:55:11;101771.84;;;19.53;100.00
25430;BME280;13360;48.152;-1.788;2023-05-29T08:57:37;101788.19;;;19.60;100.00
25430;BME280;13360;48.152;-1.788;2023-05-29T09:00:07;101750.59;;;19.61;100.00
25430;BME280;13360;48.152;-1.788;2023-05-29T09:02:38;101715.16;;;19.56;100.00
25430;BME280;13360;48.152;-1.788;2023-05-29T09:05:03;101713.84;;;19.54;100.00
25430;BME280;13360;48.152;-1.788;2023-05-29T09:07:29;101732.63;;;19.62;100.00
25430;BME280;13360;48.152;-1.788;2023-05-29T09:09:55;101772.66;;;19.71;100.00
25430;BME280;13360;48.152;-1.788;2023-05-29T09:12:20;101780.25;;;19.79;100.00
25430;BME280;13360;48.152;-1.788;2023-05-29T09:14:46;101744.28;;;19.81;100.00
25430;BME280;13360;48.152;-1.788;2023-05-29T09:17:12;101724.00;;;19.75;100.00
25430;BME280;13360;48.152;-1.788;2023-05-29T09:19:38;101739.25;;;19.95;100.00
25430;BME280;13360;48.152;-1.788;2023-05-29T09:22:08;101746.75;;;20.21;100.00
25430;BME280;13360;48.152;-1.788;2023-05-29T09:24:35;101766.38;;;20.80;100.00
25430;BME280;13360;48.152;-1.788;2023-05-29T09:27:04;101795.28;;;21.43;100.00
25430;BME280;13360;48.152;-1.788;2023-05-29T09:29:33;101733.13;;;21.89;100.00
25430;BME280;13360;48.152;-1.788;2023-05-29T09:31:58;101726.13;;;22.20;100.00
25430;BME280;13360;48.152;-1.788;2023-05-29T09:34:24;101708.53;;;22.23;100.00
25430;BME280;13360;48.152;-1.788;2023-05-29T09:36:51;101702.59;;;22.65;100.00
25430;BME280;13360;48.152;-1.788;2023-05-29T09:39:17;101693.22;;;23.29;100.00
25430;BME280;13360;48.152;-1.788;2023-05-29T09:41:44;101693.75;;;24.10;100.00
25430;BME280;13360;48.152;-1.788;2023-05-29T09:44:13;101684.94;;;24.62;100.00
25430;BME280;13360;48.152;-1.788;2023-05-29T09:46:39;101688.44;;;24.94;100.00
25430;BME280;13360;48.152;-1.788;2023-05-29T09:49:09;101691.09;;;25.45;100.00
25430;BME280;13360;48.152;-1.788;2023-05-29T09:51:35;101695.22;;;25.93;100.00
25430;BME280;13360;48.152;-1.788;2023-05-29T09:54:12;101694.38;;;26.42;100.00
25430;BME280;13360;48.152;-1.788;2023-05-29T09:56:37;101693.59;;;26.71;100.00
25430;BME280;13360;48.152;-1.788;2023-05-29T09:59:03;101700.13;;;26.76;100.00
25430;BME280;13360;48.152;-1.788;2023-05-29T10:01:28;101689.94;;;26.41;100.00
25430;BME280;13360;48.152;-1.788;2023-05-29T10:03:53;101685.72;;;26.58;100.00
25430;BME280;13360;48.152;-1.788;2023-05-29T10:06:19;101684.53;;;26.89;100.00
25430;BME280;13360;48.152;-1.788;2023-05-29T10:08:46;101691.94;;;26.67;100.00
25430;BME280;13360;48.152;-1.788;2023-05-29T10:11:14;101689.81;;;26.34;100.00
25430;BME280;13360;48.152;-1.788;2023-05-29T10:13:42;101693.31;;;26.01;100.00
25430;BME280;13360;48.152;-1.788;2023-05-29T10:16:13;101681.84;;;25.25;100.00
25430;BME280;13360;48.152;-1.788;2023-05-29T10:18:39;101688.84;;;24.38;100.00
25430;BME280;13360;48.152;-1.788;2023-05-29T10:21:07;101678.50;;;23.79;100.00
25430;BME280;13360;48.152;-1.788;2023-05-29T10:23:32;101678.69;;;23.27;100.00
25430;BME280;13360;48.152;-1.788;2023-05-29T10:25:59;101682.34;;;22.99;100.00
25430;BME280;13360;48.152;-1.788;2023-05-29T10:28:29;101712.59;;;23.30;100.00
25430;BME280;13360;48.152;-1.788;2023-05-29T10:33:56;101681.78;;;23.97;100.00
25430;BME280;13360;48.152;-1.788;2023-05-29T10:36:27;101701.47;;;24.44;100.00
25430;BME280;13360;48.152;-1.788;2023-05-29T10:38:55;101676.56;;;24.30;100.00
25430;BME280;13360;48.152;-1.788;2023-05-29T10:43:55;101667.72;;;23.09;100.00
25430;BME280;13360;48.152;-1.788;2023-05-29T10:46:21;101663.25;;;22.80;100.00
25430;BME280;13360;48.152;-1.788;2023-05-29T10:48:49;101703.31;;;22.74;100.00
25430;BME280;13360;48.152;-1.788;2023-05-29T10:51:24;101694.50;;;22.75;100.00
25430;BME280;13360;48.152;-1.788;2023-05-29T10:53:50;101679.06;;;22.57;100.00
25430;BME280;13360;48.152;-1.788;2023-05-29T10:56:20;101688.13;;;22.38;100.00
25430;BME280;13360;48.152;-1.788;2023-05-29T10:58:49;101690.00;;;22.22;100.00
25430;BME280;13360;48.152;-1.788;2023-05-29T11:01:16;101701.97;;;22.31;100.00
25430;BME280;13360;48.152;-1.788;2023-05-29T11:03:41;101707.25;;;22.33;100.00
25430;BME280;13360;48.152;-1.788;2023-05-29T11:06:07;101697.28;;;22.23;100.00
25430;BME280;13360;48.152;-1.788;2023-05-29T11:08:43;101691.19;;;22.21;100.00
25430;BME280;13360;48.152;-1.788;2023-05-29T11:11:14;101689.44;;;22.16;100.00
25430;BME280;13360;48.152;-1.788;2023-05-29T11:13:39;101698.34;;;22.18;100.00
25430;BME280;13360;48.152;-1.788;2023-05-29T11:16:10;101692.34;;;22.20;100.00
25430;BME280;13360;48.152;-1.788;2023-05-29T11:18:46;101683.44;;;22.18;100.00
25430;BME280;13360;48.152;-1.788;2023-05-29T11:22:00;101673.25;;;22.13;100.00
25430;BME280;13360;48.152;-1.788;2023-05-29T11:23:58;101686.50;;;22.13;100.00
25430;BME280;13360;48.152;-1.788;2023-05-29T11:26:25;101710.31;;;22.15;100.00
25430;BME280;13360;48.152;-1.788;2023-05-29T11:28:51;101691.31;;;22.12;100.00
25430;BME280;13360;48.152;-1.788;2023-05-29T11:31:16;101676.78;;;22.10;100.00
25430;BME280;13360;48.152;-1.788;2023-05-29T11:33:46;101698.13;;;22.11;100.00
25430;BME280;13360;48.152;-1.788;2023-05-29T11:36:12;101687.91;;;22.07;100.00
25430;BME280;13360;48.152;-1.788;2023-05-29T11:38:37;101695.06;;;22.04;100.00
25430;BME280;13360;48.152;-1.788;2023-05-29T11:41:02;101694.69;;;22.06;100.00
25430;BME280;13360;48.152;-1.788;2023-05-29T11:43:28;101688.09;;;22.02;100.00
25430;BME280;13360;48.152;-1.788;2023-05-29T11:45:54;101712.06;;;22.08;100.00
25430;BME280;13360;48.152;-1.788;2023-05-29T11:48:19;101685.81;;;22.16;100.00
25430;BME280;13360;48.152;-1.788;2023-05-29T11:50:45;101690.72;;;22.19;100.00
25430;BME280;13360;48.152;-1.788;2023-05-29T11:53:11;101693.19;;;22.20;100.00
25430;BME280;13360;48.152;-1.788;2023-05-29T11:55:36;101697.97;;;22.20;100.00
25430;BME280;13360;48.152;-1.788;2023-05-29T11:58:04;101690.38;;;22.20;100.00
25430;BME280;13360;48.152;-1.788;2023-05-29T12:00:32;101697.28;;;22.23;100.00
25430;BME280;13360;48.152;-1.788;2023-05-29T12:02:58;101700.91;;;22.24;100.00
25430;BME280;13360;48.152;-1.788;2023-05-29T12:05:28;101665.84;;;22.21;100.00
25430;BME280;13360;48.152;-1.788;2023-05-29T12:07:54;101664.22;;;22.20;100.00
25430;BME280;13360;48.152;-1.788;2023-05-29T12:10:23;101687.56;;;22.20;100.00
25430;BME280;13360;48.152;-1.788;2023-05-29T12:12:53;101685.31;;;22.26;100.00
25430;BME280;13360;48.152;-1.788;2023-05-29T12:15:18;101670.06;;;22.27;100.00
25430;BME280;13360;48.152;-1.788;2023-05-29T12:17:44;101636.09;;;22.20;100.00
25430;BME280;13360;48.152;-1.788;2023-05-29T12:20:10;101641.25;;;22.18;100.00
25430;BME280;13360;48.152;-1.788;2023-05-29T12:22:37;101641.72;;;22.20;100.00
25430;BME280;13360;48.152;-1.788;2023-05-29T12:25:12;101667.50;;;22.22;100.00
25430;BME280;13360;48.152;-1.788;2023-05-29T12:27:38;101640.88;;;22.19;100.00
25430;BME280;13360;48.152;-1.788;2023-05-29T12:30:11;101660.59;;;22.19;100.00
25430;BME280;13360;48.152;-1.788;2023-05-29T12:32:39;101652.97;;;22.20;100.00
25430;BME280;13360;48.152;-1.788;2023-05-29T12:35:11;101659.78;;;22.19;100.00
25430;BME280;13360;48.152;-1.788;2023-05-29T12:37:47;101673.47;;;22.20;100.00
25430;BME280;13360;48.152;-1.788;2023-05-29T12:42:41;101633.28;;;22.20;100.00
25430;BME280;13360;48.152;-1.788;2023-05-29T12:45:06;101654.59;;;22.21;100.00